sensor_id;sensor_type;location;lat;lon;timestamp;pressure;altitude;pressure_sealevel;temperature;humidity
71043;BME280;58696;52.134;5.500;2023-06-10T00:02:21;101614.25;;;20.27;51.17
71043;BME280;58696;52.134;5.500;2023-06-10T00:04:50;101613.94;;;20.23;51.03
71043;BME280;58696;52.134;5.500;2023-06-10T00:07:20;101614.59;;;20.19;50.91
71043;BME280;58696;52.134;5.500;2023-06-10T00:09:46;101614.84;;;20.17;50.92
71043;BME280;58696;52.134;5.500;2023-06-10T00:12:13;101614.00;;;20.17;50.65
71043;BME280;58696;52.134;5.500;2023-06-10T00:14:45;101613.69;;;20.13;50.86
71043;BME280;58696;52.134;5.500;2023-06-10T00:17:12;101625.38;;;20.11;50.49
71043;BME280;58696;52.134;5.500;2023-06-10T00:19:41;101623.34;;;20.13;50.33
71043;BME280;58696;52.134;5.500;2023-06-10T00:22:08;101624.91;;;20.14;49.82
71043;BME280;58696;52.134;5.500;2023-06-10T00:24:37;101627.28;;;20.15;49.20
71043;BME280;58696;52.134;5.500;2023-06-10T00:27:08;101621.84;;;20.17;49.37
71043;BME280;58696;52.134;5.500;2023-06-10T00:29:37;101620.25;;;20.16;48.64
71043;BME280;58696;52.134;5.500;2023-06-10T00:32:06;101615.63;;;20.18;48.97
71043;BME280;58696;52.134;5.500;2023-06-10T00:34:33;101625.72;;;20.14;48.37
71043;BME280;58696;52.134;5.500;2023-06-10T00:37:00;101622.53;;;20.12;48.94
71043;BME280;58696;52.134;5.500;2023-06-10T00:39:29;101621.16;;;20.10;48.59
71043;BME280;58696;52.134;5.500;2023-06-10T00:42:00;101625.03;;;20.07;48.00
71043;BME280;58696;52.134;5.500;2023-06-10T00:44:29;101631.47;;;20.05;48.27
71043;BME280;58696;52.134;5.500;2023-06-10T00:47:01;101624.69;;;20.04;48.17
71043;BME280;58696;52.134;5.500;2023-06-10T00:49:30;101627.53;;;20.02;48.09
71043;BME280;58696;52.134;5.500;2023-06-10T00:52:03;101627.97;;;19.99;48.18
71043;BME280;58696;52.134;5.500;2023-06-10T00:54:30;101629.22;;;19.96;48.09
71043;BME280;58696;52.134;5.500;2023-06-10T00:57:01;101622.63;;;19.94;48.11
71043;BME280;58696;52.134;5.500;2023-06-10T00:59:34;101629.88;;;19.92;48.06
71043;BME280;58696;52.134;5.500;2023-06-10T01:02:00;101627.72;;;19.89;48.17
71043;BME280;58696;52.134;5.500;2023-06-10T01:04:30;101622.38;;;19.84;48.62
71043;BME280;58696;52.134;5.500;2023-06-10T01:12:46;101630.53;;;19.76;48.47
71043;BME280;58696;52.134;5.500;2023-06-10T01:15:21;101627.56;;;19.72;48.72
71043;BME280;58696;52.134;5.500;2023-06-10T01:18:01;101627.25;;;19.68;48.97
71043;BME280;58696;52.134;5.500;2023-06-10T01:20:30;101630.84;;;19.67;49.19
71043;BME280;58696;52.134;5.500;2023-06-10T01:22:59;101634.47;;;19.66;49.32
71043;BME280;58696;52.134;5.500;2023-06-10T01:25:28;101640.16;;;19.63;49.11
71043;BME280;58696;52.134;5.500;2023-06-10T01:28:17;101637.53;;;19.63;49.18
71043;BME280;58696;52.134;5.500;2023-06-10T01:33:43;101639.13;;;19.64;49.42
71043;BME280;58696;52.134;5.500;2023-06-10T01:36:12;101637.97;;;19.60;49.53
71043;BME280;58696;52.134;5.500;2023-06-10T01:38:48;101636.38;;;19.59;49.82
71043;BME280;58696;52.134;5.500;2023-06-10T01:41:17;101631.38;;;19.58;49.90
71043;BME280;58696;52.134;5.500;2023-06-10T01:43:45;101639.63;;;19.55;50.05
71043;BME280;58696;52.134;5.500;2023-06-10T01:46:12;101627.59;;;19.54;50.23
71043;BME280;58696;52.134;5.500;2023-06-10T01:48:41;101636.44;;;19.53;50.22
71043;BME280;58696;52.134;5.500;2023-06-10T01:51:08;101630.88;;;19.49;50.57
71043;BME280;58696;52.134;5.500;2023-06-10T01:53:37;101639.94;;;19.47;50.75
71043;BME280;58696;52.134;5.500;2023-06-10T01:56:04;101627.34;;;19.43;50.83
71043;BME280;58696;52.134;5.500;2023-06-10T01:58:36;101635.38;;;19.42;50.80
71043;BME280;58696;52.134;5.500;2023-06-10T02:01:02;101631.41;;;19.39;51.28
71043;BME280;58696;52.134;5.500;2023-06-10T02:03:32;101632.06;;;19.35;51.56
71043;BME280;58696;52.134;5.500;2023-06-10T02:05:58;101633.72;;;19.29;51.96
71043;BME280;58696;52.134;5.500;2023-06-10T02:08:29;101637.59;;;19.27;52.05
71043;BME280;58696;52.134;5.500;2023-06-10T02:10:56;101644.03;;;19.24;52.27
71043;BME280;58696;52.134;5.500;2023-06-10T02:13:22;101639.25;;;19.21;52.27
71043;BME280;58696;52.134;5.500;2023-06-10T02:15:51;101638.34;;;19.15;52.93
71043;BME280;58696;52.134;5.500;2023-06-10T02:18:20;101642.38;;;19.11;52.85
71043;BME280;58696;52.134;5.500;2023-06-10T02:20:47;101641.22;;;19.07;52.87
71043;BME280;58696;52.134;5.500;2023-06-10T02:23:18;101640.88;;;19.04;52.99
71043;BME280;58696;52.134;5.500;2023-06-10T02:25:47;101638.94;;;18.99;53.62
71043;BME280;58696;52.134;5.500;2023-06-10T02:28:14;101653.03;;;18.91;54.07
71043;BME280;58696;52.134;5.500;2023-06-10T02:30:42;101653.69;;;18.87;54.12
71043;BME280;58696;52.134;5.500;2023-06-10T02:33:09;101652.75;;;18.81;53.81
71043;BME280;58696;52.134;5.500;2023-06-10T02:35:41;101659.63;;;18.76;54.75
71043;BME280;58696;52.134;5.500;2023-06-10T02:38:14;101659.25;;;18.72;54.95
71043;BME280;58696;52.134;5.500;2023-06-10T02:40:42;101657.66;;;18.71;54.67
71043;BME280;58696;52.134;5.500;2023-06-10T02:43:09;101661.09;;;18.65;55.20
71043;BME280;58696;52.134;5.500;2023-06-10T02:45:38;101656.94;;;18.57;55.54
71043;BME280;58696;52.134;5.500;2023-06-10T02:48:07;101657.59;;;18.53;55.49
71043;BME280;58696;52.134;5.500;2023-06-10T02:50:35;101660.19;;;18.53;56.15
71043;BME280;58696;52.134;5.500;2023-06-10T02:53:04;101655.63;;;18.48;55.83
71043;BME280;58696;52.134;5.500;2023-06-10T02:55:31;101666.25;;;18.47;56.07
71043;BME280;58696;52.134;5.500;2023-06-10T02:58:04;101660.09;;;18.41;55.98
71043;BME280;58696;52.134;5.500;2023-06-10T03:00:30;101658.91;;;18.37;56.36
71043;BME280;58696;52.134;5.500;2023-06-10T03:02:59;101659.13;;;18.35;56.74
71043;BME280;58696;52.134;5.500;2023-06-10T03:05:31;101656.81;;;18.27;56.98
71043;BME280;58696;52.134;5.500;2023-06-10T03:08:01;101664.81;;;18.26;57.21
71043;BME280;58696;52.134;5.500;2023-06-10T03:10:30;101663.44;;;18.23;57.56
71043;BME280;58696;52.134;5.500;2023-06-10T03:12:59;101665.88;;;18.18;57.41
71043;BME280;58696;52.134;5.500;2023-06-10T03:15:28;101665.72;;;18.13;57.91
71043;BME280;58696;52.134;5.500;2023-06-10T03:17:55;101662.53;;;18.11;58.01
71043;BME280;58696;52.134;5.500;2023-06-10T03:20:21;101667.59;;;18.06;58.34
71043;BME280;58696;52.134;5.500;2023-06-10T03:22:48;101665.41;;;18.03;58.47
71043;BME280;58696;52.134;5.500;2023-06-10T03:25:15;101670.03;;;18.01;58.66
71043;BME280;58696;52.134;5.500;2023-06-10T03:27:42;101667.03;;;17.97;58.88
71043;BME280;58696;52.134;5.500;2023-06-10T03:30:09;101665.06;;;17.93;59.09
71043;BME280;58696;52.134;5.500;2023-06-10T03:32:36;101675.91;;;17.90;59.29
71043;BME280;58696;52.134;5.500;2023-06-10T03:35:09;101666.47;;;17.88;59.34
71043;BME280;58696;52.134;5.500;2023-06-10T03:37:36;101668.28;;;17.88;59.55
71043;BME280;58696;52.134;5.500;2023-06-10T03:40:05;101669.72;;;17.84;59.57
71043;BME280;58696;52.134;5.500;2023-06-10T03:42:32;101669.13;;;17.82;59.77
71043;BME280;58696;52.134;5.500;2023-06-10T03:45:02;101671.16;;;17.80;59.78
71043;BME280;58696;52.134;5.500;2023-06-10T03:47:36;101671.94;;;17.80;59.92
71043;BME280;58696;52.134;5.500;2023-06-10T03:50:07;101676.75;;;17.77;59.94
71043;BME280;58696;52.134;5.500;2023-06-10T03:52:35;101678.94;;;17.80;60.23
71043;BME280;58696;52.134;5.500;2023-06-10T03:55:02;101678.94;;;17.80;59.47
71043;BME280;58696;52.134;5.500;2023-06-10T03:57:30;101680.75;;;17.79;60.02
71043;BME280;58696;52.134;5.500;2023-06-10T03:59:59;101675.34;;;17.81;60.49
71043;BME280;58696;52.134;5.500;2023-06-10T04:02:28;101683.13;;;17.81;60.73
71043;BME280;58696;52.134;5.500;2023-06-10T04:04:59;101681.34;;;17.81;60.59
71043;BME280;58696;52.134;5.500;2023-06-10T04:07:26;101676.94;;;17.82;60.65
71043;BME280;58696;52.134;5.500;2023-06-10T04:09:59;101680.13;;;17.84;60.95
71043;BME280;58696;52.134;5.500;2023-06-10T04:12:31;101690.31;;;17.85;60.85
71043;BME280;58696;52.134;5.500;2023-06-10T04:14:59;101682.31;;;17.87;61.00
71043;BME280;58696;52.134;5.500;2023-06-10T04:17:26;101693.09;;;17.91;60.85
71043;BME280;58696;52.134;5.500;2023-06-10T04:19:53;101683.47;;;17.91;60.72
71043;BME280;58696;52.134;5.500;2023-06-10T04:22:21;101693.88;;;17.91;60.44
71043;BME280;58696;52.134;5.500;2023-06-10T04:24:47;101695.25;;;17.94;61.58
71043;BME280;58696;52.134;5.500;2023-06-10T04:27:16;101693.66;;;17.93;61.54
71043;BME280;58696;52.134;5.500;2023-06-10T04:29:47;101696.06;;;17.94;61.79
71043;BME280;58696;52.134;5.500;2023-06-10T04:32:16;101703.22;;;17.99;61.53
71043;BME280;58696;52.134;5.500;2023-06-10T04:34:45;101704.03;;;17.99;61.66
71043;BME280;58696;52.134;5.500;2023-06-10T04:37:14;101707.63;;;17.98;61.65
71043;BME280;58696;52.134;5.500;2023-06-10T04:39:43;101700.22;;;18.02;62.12
71043;BME280;58696;52.134;5.500;2023-06-10T04:42:12;101706.59;;;18.06;62.09
71043;BME280;58696;52.134;5.500;2023-06-10T04:44:41;101703.78;;;18.07;61.81
71043;BME280;58696;52.134;5.500;2023-06-10T04:47:08;101706.78;;;18.11;61.59
71043;BME280;58696;52.134;5.500;2023-06-10T04:49:37;101707.75;;;18.17;62.13
71043;BME280;58696;52.134;5.500;2023-06-10T04:52:04;101708.88;;;18.21;62.07
71043;BME280;58696;52.134;5.500;2023-06-10T04:54:31;101713.47;;;18.25;62.37
71043;BME280;58696;52.134;5.500;2023-06-10T04:56:59;101710.00;;;18.38;61.87
71043;BME280;58696;52.134;5.500;2023-06-10T04:59:26;101720.03;;;19.03;60.15
71043;BME280;58696;52.134;5.500;2023-06-10T05:01:56;101713.53;;;20.09;56.66
71043;BME280;58696;52.134;5.500;2023-06-10T05:04:23;101707.16;;;20.93;54.46
71043;BME280;58696;52.134;5.500;2023-06-10T05:06:54;101710.28;;;21.59;52.86
71043;BME280;58696;52.134;5.500;2023-06-10T05:09:23;101708.00;;;22.58;50.04
71043;BME280;58696;52.134;5.500;2023-06-10T05:11:52;101715.31;;;22.56;49.73
71043;BME280;58696;52.134;5.500;2023-06-10T05:14:20;101710.25;;;23.10;48.90
71043;BME280;58696;52.134;5.500;2023-06-10T05:16:47;101713.31;;;24.00;46.93
71043;BME280;58696;52.134;5.500;2023-06-10T05:19:14;101710.56;;;24.17;45.11
71043;BME280;58696;52.134;5.500;2023-06-10T05:21:44;101712.66;;;24.15;46.21
71043;BME280;58696;52.134;5.500;2023-06-10T05:24:10;101704.63;;;24.32;45.05
71043;BME280;58696;52.134;5.500;2023-06-10T05:26:37;101709.06;;;24.26;44.80
71043;BME280;58696;52.134;5.500;2023-06-10T05:29:05;101705.50;;;24.85;43.51
71043;BME280;58696;52.134;5.500;2023-06-10T05:31:31;101712.91;;;25.03;42.86
71043;BME280;58696;52.134;5.500;2023-06-10T05:34:00;101701.69;;;24.60;44.21
71043;BME280;58696;52.134;5.500;2023-06-10T05:36:27;101712.69;;;24.52;44.66
71043;BME280;58696;52.134;5.500;2023-06-10T05:38:56;101708.94;;;25.01;43.94
71043;BME280;58696;52.134;5.500;2023-06-10T05:41:25;101720.47;;;24.79;43.48
71043;BME280;58696;52.134;5.500;2023-06-10T05:43:52;101717.28;;;24.82;43.26
71043;BME280;58696;52.134;5.500;2023-06-10T05:46:21;101722.63;;;24.98;44.19
71043;BME280;58696;52.134;5.500;2023-06-10T05:48:47;101723.00;;;25.22;42.40
71043;BME280;58696;52.134;5.500;2023-06-10T05:51:14;101724.63;;;24.75;43.16
71043;BME280;58696;52.134;5.500;2023-06-10T05:53:43;101722.47;;;24.67;43.34
71043;BME280;58696;52.134;5.500;2023-06-10T05:56:10;101725.25;;;24.98;43.56
71043;BME280;58696;52.134;5.500;2023-06-10T05:58:43;101724.50;;;26.21;41.12
71043;BME280;58696;52.134;5.500;2023-06-10T06:01:10;101717.50;;;26.91;39.27
71043;BME280;58696;52.134;5.500;2023-06-10T06:03:42;101721.03;;;26.46;39.85
71043;BME280;58696;52.134;5.500;2023-06-10T06:06:11;101712.88;;;26.27;39.95
71043;BME280;58696;52.134;5.500;2023-06-10T06:08:42;101718.44;;;27.21;40.03
71043;BME280;58696;52.134;5.500;2023-06-10T06:11:11;101723.50;;;27.57;37.03
71043;BME280;58696;52.134;5.500;2023-06-10T06:13:38;101725.63;;;27.00;38.10
71043;BME280;58696;52.134;5.500;2023-06-10T06:16:07;101728.00;;;27.07;39.03
71043;BME280;58696;52.134;5.500;2023-06-10T06:18:38;101720.69;;;27.82;36.78
71043;BME280;58696;52.134;5.500;2023-06-10T06:21:05;101719.56;;;27.93;36.55
71043;BME280;58696;52.134;5.500;2023-06-10T06:23:32;101722.50;;;27.87;37.58
71043;BME280;58696;52.134;5.500;2023-06-10T06:26:03;101714.47;;;27.18;37.93
71043;BME280;58696;52.134;5.500;2023-06-10T06:28:33;101708.88;;;27.30;38.06
71043;BME280;58696;52.134;5.500;2023-06-10T06:31:04;101723.47;;;28.01;36.42
71043;BME280;58696;52.134;5.500;2023-06-10T06:33:31;101717.75;;;27.44;37.23
71043;BME280;58696;52.134;5.500;2023-06-10T06:35:58;101716.75;;;26.76;37.52
71043;BME280;58696;52.134;5.500;2023-06-10T06:38:26;101711.28;;;26.46;38.78
71043;BME280;58696;52.134;5.500;2023-06-10T06:40:55;101713.47;;;27.04;39.65
71043;BME280;58696;52.134;5.500;2023-06-10T06:43:22;101709.50;;;28.24;36.61
71043;BME280;58696;52.134;5.500;2023-06-10T06:45:51;101723.84;;;28.18;35.10
71043;BME280;58696;52.134;5.500;2023-06-10T06:48:17;101715.19;;;27.34;36.96
71043;BME280;58696;52.134;5.500;2023-06-10T06:50:44;101716.69;;;26.91;36.95
71043;BME280;58696;52.134;5.500;2023-06-10T06:53:13;101717.41;;;27.12;38.21
71043;BME280;58696;52.134;5.500;2023-06-10T06:55:42;101715.22;;;28.31;35.77
71043;BME280;58696;52.134;5.500;2023-06-10T06:58:08;101718.94;;;28.36;35.26
71043;BME280;58696;52.134;5.500;2023-06-10T07:00:40;101726.41;;;27.11;37.64
71043;BME280;58696;52.134;5.500;2023-06-10T07:03:09;101718.75;;;27.09;37.72
71043;BME280;58696;52.134;5.500;2023-06-10T07:05:38;101720.84;;;27.02;38.37
71043;BME280;58696;52.134;5.500;2023-06-10T07:08:05;101716.19;;;27.83;37.24
71043;BME280;58696;52.134;5.500;2023-06-10T07:10:34;101721.06;;;28.81;36.15
71043;BME280;58696;52.134;5.500;2023-06-10T07:13:01;101722.06;;;29.85;35.54
71043;BME280;58696;52.134;5.500;2023-06-10T07:15:27;101726.38;;;30.27;33.34
71043;BME280;58696;52.134;5.500;2023-06-10T07:17:54;101724.41;;;30.33;32.83
71043;BME280;58696;52.134;5.500;2023-06-10T07:20:22;101723.34;;;30.89;32.06
71043;BME280;58696;52.134;5.500;2023-06-10T07:22:48;101727.31;;;30.78;32.71
71043;BME280;58696;52.134;5.500;2023-06-10T07:25:15;101727.28;;;30.50;33.51
71043;BME280;58696;52.134;5.500;2023-06-10T07:27:44;101726.63;;;31.22;33.36
71043;BME280;58696;52.134;5.500;2023-06-10T07:30:11;101725.75;;;31.94;29.86
71043;BME280;58696;52.134;5.500;2023-06-10T07:32:37;101719.56;;;31.17;31.81
71043;BME280;58696;52.134;5.500;2023-06-10T07:35:08;101722.00;;;31.14;32.60
71043;BME280;58696;52.134;5.500;2023-06-10T07:37:38;101725.00;;;31.80;31.96
71043;BME280;58696;52.134;5.500;2023-06-10T07:40:04;101725.16;;;31.97;29.77
71043;BME280;58696;52.134;5.500;2023-06-10T07:42:34;101725.09;;;31.07;31.98
71043;BME280;58696;52.134;5.500;2023-06-10T07:45:01;101721.31;;;31.22;33.07
71043;BME280;58696;52.134;5.500;2023-06-10T07:47:30;101728.47;;;30.99;30.14
71043;BME280;58696;52.134;5.500;2023-06-10T07:49:57;101733.38;;;30.64;32.25
71043;BME280;58696;52.134;5.500;2023-06-10T07:52:24;101728.81;;;31.06;31.89
71043;BME280;58696;52.134;5.500;2023-06-10T07:54:53;101733.53;;;31.09;31.49
71043;BME280;58696;52.134;5.500;2023-06-10T07:57:19;101728.16;;;30.32;31.59
71043;BME280;58696;52.134;5.500;2023-06-10T07:59:48;101729.84;;;30.09;33.25
71043;BME280;58696;52.134;5.500;2023-06-10T08:02:17;101735.38;;;29.80;33.13
71043;BME280;58696;52.134;5.500;2023-06-10T08:04:44;101739.31;;;29.82;33.99
71043;BME280;58696;52.134;5.500;2023-06-10T08:07:10;101735.34;;;30.45;35.49
71043;BME280;58696;52.134;5.500;2023-06-10T08:09:39;101729.97;;;31.28;31.46
71043;BME280;58696;52.134;5.500;2023-06-10T08:12:06;101741.09;;;31.30;32.11
71043;BME280;58696;52.134;5.500;2023-06-10T08:14:33;101736.16;;;31.23;29.31
71043;BME280;58696;52.134;5.500;2023-06-10T08:17:00;101732.88;;;30.76;31.41
71043;BME280;58696;52.134;5.500;2023-06-10T08:19:26;101717.91;;;30.11;33.19
71043;BME280;58696;52.134;5.500;2023-06-10T08:21:59;101727.94;;;30.28;32.46
71043;BME280;58696;52.134;5.500;2023-06-10T08:24:28;101729.13;;;30.36;34.84
71043;BME280;58696;52.134;5.500;2023-06-10T08:26:56;101725.50;;;30.32;33.26
71043;BME280;58696;52.134;5.500;2023-06-10T08:29:26;101723.97;;;30.12;33.34
71043;BME280;58696;52.134;5.500;2023-06-10T08:31:57;101730.59;;;29.63;32.93
71043;BME280;58696;52.134;5.500;2023-06-10T08:34:26;101732.66;;;29.10;35.27
71043;BME280;58696;52.134;5.500;2023-06-10T08:36:53;101729.94;;;29.33;37.13
71043;BME280;58696;52.134;5.500;2023-06-10T08:39:22;101721.84;;;29.06;35.11
71043;BME280;58696;52.134;5.500;2023-06-10T08:42:21;101734.66;;;28.99;35.40
71043;BME280;58696;52.134;5.500;2023-06-10T08:44:55;101737.28;;;28.75;36.14
71043;BME280;58696;52.134;5.500;2023-06-10T08:47:25;101730.25;;;28.89;35.76
71043;BME280;58696;52.134;5.500;2023-06-10T08:49:56;101729.47;;;29.31;35.22
71043;BME280;58696;52.134;5.500;2023-06-10T08:52:28;101731.31;;;29.12;38.44
71043;BME280;58696;52.134;5.500;2023-06-10T08:55:00;101730.28;;;29.08;34.16
71043;BME280;58696;52.134;5.500;2023-06-10T08:57:30;101731.94;;;29.04;35.45
71043;BME280;58696;52.134;5.500;2023-06-10T08:59:57;101733.81;;;29.03;34.20
71043;BME280;58696;52.134;5.500;2023-06-10T09:02:29;101727.38;;;28.62;35.52
71043;BME280;58696;52.134;5.500;2023-06-10T09:04:59;101736.28;;;28.71;34.24
71043;BME280;58696;52.134;5.500;2023-06-10T09:07:26;101731.38;;;28.83;34.68
71043;BME280;58696;52.134;5.500;2023-06-10T09:09:52;101735.91;;;29.25;35.24
71043;BME280;58696;52.134;5.500;2023-06-10T09:12:20;101732.59;;;29.52;32.53
71043;BME280;58696;52.134;5.500;2023-06-10T09:14:48;101735.03;;;29.11;33.47
71043;BME280;58696;52.134;5.500;2023-06-10T09:17:17;101729.97;;;29.15;33.34
71043;BME280;58696;52.134;5.500;2023-06-10T09:19:44;101729.31;;;29.23;32.75
71043;BME280;58696;52.134;5.500;2023-06-10T09:22:17;101733.38;;;29.34;32.97
71043;BME280;58696;52.134;5.500;2023-06-10T09:24:49;101734.53;;;29.28;31.61
71043;BME280;58696;52.134;5.500;2023-06-10T09:27:20;101727.56;;;28.94;32.73
71043;BME280;58696;52.134;5.500;2023-06-10T09:29:51;101726.16;;;29.21;33.53
71043;BME280;58696;52.134;5.500;2023-06-10T09:32:19;101727.22;;;29.57;31.61
71043;BME280;58696;52.134;5.500;2023-06-10T09:34:48;101722.16;;;29.42;32.29
71043;BME280;58696;52.134;5.500;2023-06-10T09:37:21;101731.09;;;29.46;32.66
71043;BME280;58696;52.134;5.500;2023-06-10T09:40:05;101727.16;;;29.63;31.69
71043;BME280;58696;52.134;5.500;2023-06-10T09:42:39;101727.84;;;29.87;34.18
71043;BME280;58696;52.134;5.500;2023-06-10T09:45:08;101722.25;;;30.21;34.01
71043;BME280;58696;52.134;5.500;2023-06-10T09:47:38;101721.78;;;30.00;30.78
71043;BME280;58696;52.134;5.500;2023-06-10T09:50:07;101724.81;;;29.94;30.60
71043;BME280;58696;52.134;5.500;2023-06-10T09:52:36;101719.66;;;29.70;31.51
71043;BME280;58696;52.134;5.500;2023-06-10T09:55:03;101718.66;;;29.98;32.69
71043;BME280;58696;52.134;5.500;2023-06-10T09:57:32;101714.72;;;30.09;31.03
71043;BME280;58696;52.134;5.500;2023-06-10T10:00:10;101725.75;;;29.84;31.96
71043;BME280;58696;52.134;5.500;2023-06-10T10:02:48;101711.16;;;30.00;31.75
71043;BME280;58696;52.134;5.500;2023-06-10T10:05:19;101718.81;;;30.21;31.10
71043;BME280;58696;52.134;5.500;2023-06-10T10:07:52;101715.25;;;29.79;29.63
71043;BME280;58696;52.134;5.500;2023-06-10T10:10:23;101716.53;;;29.81;32.41
71043;BME280;58696;52.134;5.500;2023-06-10T10:12:56;101705.75;;;30.24;30.89
71043;BME280;58696;52.134;5.500;2023-06-10T10:15:27;101715.59;;;30.51;29.83
71043;BME280;58696;52.134;5.500;2023-06-10T10:18:07;101705.47;;;30.40;28.89
71043;BME280;58696;52.134;5.500;2023-06-10T10:20:49;101704.88;;;30.43;29.31
71043;BME280;58696;52.134;5.500;2023-06-10T10:23:24;101719.41;;;30.59;27.39
71043;BME280;58696;52.134;5.500;2023-06-10T10:25:53;101709.19;;;30.25;30.41
71043;BME280;58696;52.134;5.500;2023-06-10T10:28:27;101704.56;;;30.58;30.73
71043;BME280;58696;52.134;5.500;2023-06-10T10:30:59;101709.56;;;30.87;28.52
71043;BME280;58696;52.134;5.500;2023-06-10T10:33:35;101699.56;;;30.84;25.47
71043;BME280;58696;52.134;5.500;2023-06-10T10:36:08;101697.19;;;30.69;26.89
71043;BME280;58696;52.134;5.500;2023-06-10T10:38:35;101697.38;;;31.00;29.48
71043;BME280;58696;52.134;5.500;2023-06-10T10:41:03;101705.66;;;31.34;27.62
71043;BME280;58696;52.134;5.500;2023-06-10T10:43:30;101689.59;;;31.39;24.59
71043;BME280;58696;52.134;5.500;2023-06-10T10:46:01;101693.16;;;31.57;26.90
71043;BME280;58696;52.134;5.500;2023-06-10T10:48:39;101693.50;;;31.42;24.99
71043;BME280;58696;52.134;5.500;2023-06-10T10:51:11;101697.84;;;31.02;29.35
71043;BME280;58696;52.134;5.500;2023-06-10T10:53:38;101698.84;;;30.92;28.76
71043;BME280;58696;52.134;5.500;2023-06-10T10:56:06;101698.38;;;30.90;28.92
71043;BME280;58696;52.134;5.500;2023-06-10T10:58:33;101694.84;;;30.81;25.98
71043;BME280;58696;52.134;5.500;2023-06-10T11:01:10;101692.63;;;31.10;24.47
71043;BME280;58696;52.134;5.500;2023-06-10T11:03:44;101689.13;;;30.60;24.47
71043;BME280;58696;52.134;5.500;2023-06-10T11:06:17;101697.09;;;30.32;24.96
71043;BME280;58696;52.134;5.500;2023-06-10T11:11:27;101682.97;;;30.23;26.60
71043;BME280;58696;52.134;5.500;2023-06-10T11:16:40;101685.00;;;30.95;25.03
71043;BME280;58696;52.134;5.500;2023-06-10T11:19:08;101683.84;;;30.46;24.21
71043;BME280;58696;52.134;5.500;2023-06-10T11:22:01;101678.75;;;30.36;25.02
71043;BME280;58696;52.134;5.500;2023-06-10T11:24:30;101669.28;;;30.85;26.29
71043;BME280;58696;52.134;5.500;2023-06-10T11:27:18;101676.06;;;31.13;25.43
71043;BME280;58696;52.134;5.500;2023-06-10T11:32:33;101668.78;;;31.33;26.06
71043;BME280;58696;52.134;5.500;2023-06-10T11:35:05;101669.41;;;31.61;25.91
71043;BME280;58696;52.134;5.500;2023-06-10T11:37:34;101670.50;;;31.82;27.45
71043;BME280;58696;52.134;5.500;2023-06-10T11:40:02;101669.44;;;31.69;23.60
71043;BME280;58696;52.134;5.500;2023-06-10T11:42:29;101666.59;;;31.35;25.32
71043;BME280;58696;52.134;5.500;2023-06-10T11:44:58;101669.88;;;31.85;24.09
71043;BME280;58696;52.134;5.500;2023-06-10T11:47:29;101664.66;;;31.27;23.96
71043;BME280;58696;52.134;5.500;2023-06-10T11:49:57;101673.53;;;31.45;26.71
71043;BME280;58696;52.134;5.500;2023-06-10T11:52:29;101656.63;;;31.40;24.08
71043;BME280;58696;52.134;5.500;2023-06-10T11:54:57;101663.41;;;31.78;24.60
71043;BME280;58696;52.134;5.500;2023-06-10T11:57:26;101657.34;;;31.86;24.96
71043;BME280;58696;52.134;5.500;2023-06-10T12:00:05;101661.69;;;31.51;24.17
71043;BME280;58696;52.134;5.500;2023-06-10T12:02:34;101661.69;;;31.28;24.30
71043;BME280;58696;52.134;5.500;2023-06-10T12:05:14;101652.63;;;31.52;25.85
71043;BME280;58696;52.134;5.500;2023-06-10T12:07:43;101653.81;;;31.68;24.28
71043;BME280;58696;52.134;5.500;2023-06-10T12:10:12;101655.25;;;31.74;25.85
71043;BME280;58696;52.134;5.500;2023-06-10T12:12:53;101638.56;;;31.51;23.63
71043;BME280;58696;52.134;5.500;2023-06-10T12:15:25;101642.88;;;31.25;25.43
71043;BME280;58696;52.134;5.500;2023-06-10T12:17:55;101634.22;;;31.33;25.21
71043;BME280;58696;52.134;5.500;2023-06-10T12:20:27;101634.28;;;31.73;25.88
71043;BME280;58696;52.134;5.500;2023-06-10T12:22:54;101629.84;;;31.59;23.81
71043;BME280;58696;52.134;5.500;2023-06-10T12:25:28;101636.91;;;31.64;24.95
71043;BME280;58696;52.134;5.500;2023-06-10T12:27:58;101625.81;;;31.93;25.23
71043;BME280;58696;52.134;5.500;2023-06-10T12:30:26;101622.16;;;32.20;25.91
71043;BME280;58696;52.134;5.500;2023-06-10T12:32:53;101624.59;;;32.08;22.79
71043;BME280;58696;52.134;5.500;2023-06-10T12:35:24;101629.31;;;31.80;26.87
71043;BME280;58696;52.134;5.500;2023-06-10T12:38:01;101625.09;;;31.79;26.85
71043;BME280;58696;52.134;5.500;2023-06-10T12:40:36;101624.31;;;32.09;25.97
71043;BME280;58696;52.134;5.500;2023-06-10T12:43:09;101626.13;;;32.40;24.27
71043;BME280;58696;52.134;5.500;2023-06-10T12:45:37;101615.50;;;32.49;22.72
71043;BME280;58696;52.134;5.500;2023-06-10T12:48:07;101617.00;;;32.32;23.47
71043;BME280;58696;52.134;5.500;2023-06-10T12:50:39;101622.72;;;32.00;23.65
71043;BME280;58696;52.134;5.500;2023-06-10T12:53:11;101624.53;;;31.82;25.40
71043;BME280;58696;52.134;5.500;2023-06-10T12:55:43;101614.59;;;32.05;26.06
71043;BME280;58696;52.134;5.500;2023-06-10T12:58:12;101621.00;;;32.52;26.48
71043;BME280;58696;52.134;5.500;2023-06-10T13:00:43;101618.16;;;32.66;26.05
71043;BME280;58696;52.134;5.500;2023-06-10T13:03:10;101629.78;;;32.70;25.66
71043;BME280;58696;52.134;5.500;2023-06-10T13:05:37;101630.56;;;32.79;25.42
71043;BME280;58696;52.134;5.500;2023-06-10T13:08:08;101617.38;;;32.48;25.35
71043;BME280;58696;52.134;5.500;2023-06-10T13:10:38;101622.16;;;32.20;25.31
71043;BME280;58696;52.134;5.500;2023-06-10T13:13:05;101614.78;;;32.17;25.92
71043;BME280;58696;52.134;5.500;2023-06-10T13:15:36;101610.78;;;31.88;25.87
71043;BME280;58696;52.134;5.500;2023-06-10T13:18:09;101611.16;;;32.04;24.28
71043;BME280;58696;52.134;5.500;2023-06-10T13:20:38;101600.41;;;32.27;24.70